Portada
METAR-TAF:

METAR-TAF

Aeroports :

Camagüey, Cuba

latitud: 21-25N, longitud: 077-51W, altitud: 122 m

Observació

L'informe es va fer fa 47 minuts, a les 13:50 UTC
Vent 6 kt del Nord-Est
Temperatura 24°C
Humitat 94%
Pressió 1018 hPa
Visibilitat: 9000 m
Núvols disperses a una alçada de 2000 ft

METAR: MUCM 051350Z 04006KT 9000 SCT020 24/23 Q1018

Hora: 09:37 (14:37 UTC)

Pronòstic

L'informe es va fer fa 3 hores i 37 minuts, a les 11:00 UTC
Pronòstic vàlid del 05 a les 12 UTC al 06 a les 12 UTC
Vent 3 kt amb direcció variable
Visibilitat: 9000 m
Núvols disperses a una alçada de 2000 ft
Temporalment
l' 05 a les 18 UTC al 05 a les 24 UTC
Visibilitat: 5000 m
Núvols disperses a una alçada de 1800 ft, Cumulonimbus.
Cel ennuvolat a una alçada de 2000 ft
xàfecs de pluja

TAF: MUCM 051100Z 0512/0612 VRB03KT 9000 SCT020 TEMPO 0518/0524 5000 SHRA SCT018CB BKN020

Observacions i pronòstics meteorològics de més de 4000 aeroports (METAR i TAF).

Les estacions disponibles són els punts grocs i vermells al mapa.

Posi el ratolí al punt desitjat per veure el nom de l'estació.

Feu clic per veure les observacions i els pronòstics meteorològics.

Per canviar el mapa: feu clic els botons verds amb una creu de color negre per apropar; al botó verd amb un guió per allunyar la imatge; o en les fletxes verdes per a mapes adjacents.


METAR-TAF: